Time;durP1;ratioP1;P1;durP2;ratioP2;P2;SDS_P1;SDS_P2;PMS_P1;PMS_P2;Temp;Humidity;BMP_temperature;BMP_pressure;BME280_temperature;BME280_humidity;BME280_pressure;Samples;Min_cycle;Max_cycle;Signal;HPM_P1;HPM_P2
2023/05/29 00:00:13;;;;;;;18.13;3.07;;;8.10;99.90;;;;;;4931310;29;20115;-70
2023/05/29 00:02:44;;;;;;;21.00;2.63;;;8.10;99.90;;;;;;4927973;29;20102;-70
2023/05/29 00:05:13;;;;;;;13.65;2.67;;;8.00;99.90;;;;;;4927580;29;20040;-70
2023/05/29 00:07:40;;;;;;;17.38;2.15;;;8.00;99.90;;;;;;4922747;29;20043;-70
2023/05/29 00:10:08;;;;;;;17.63;2.90;;;8.00;99.90;;;;;;4930921;29;20051;-70
2023/05/29 00:12:34;;;;;;;12.15;1.85;;;8.00;99.90;;;;;;4926647;29;20040;-70
2023/05/29 00:15:00;;;;;;;15.40;2.08;;;8.00;99.90;;;;;;4905061;29;20139;-70
2023/05/29 00:17:26;;;;;;;23.58;2.65;;;7.90;99.90;;;;;;4910204;29;20044;-70
2023/05/29 00:19:52;;;;;;;18.47;1.90;;;7.90;99.90;;;;;;4931188;29;20051;-70
2023/05/29 00:22:19;;;;;;;11.67;1.97;;;7.90;99.90;;;;;;4930906;29;20051;-70
2023/05/29 00:24:44;;;;;;;18.77;2.65;;;7.90;99.90;;;;;;4926214;29;20047;-70
2023/05/29 00:27:10;;;;;;;18.27;2.23;;;7.90;99.90;;;;;;4913349;29;20032;-70
2023/05/29 00:29:37;;;;;;;15.63;2.07;;;7.80;99.90;;;;;;4916741;29;20214;-70
2023/05/29 00:32:05;;;;;;;15.13;2.45;;;7.80;99.90;;;;;;4931212;29;20111;-70
2023/05/29 00:34:31;;;;;;;13.52;2.15;;;7.80;99.90;;;;;;4921822;29;20517;-70
2023/05/29 00:36:56;;;;;;;14.45;2.25;;;7.80;99.90;;;;;;4928334;29;20082;-70
2023/05/29 00:39:22;;;;;;;16.03;2.00;;;7.80;99.90;;;;;;4927997;29;20075;-70
2023/05/29 00:41:50;;;;;;;13.07;1.80;;;7.80;99.90;;;;;;4927343;29;20059;-70
2023/05/29 00:44:18;;;;;;;18.05;2.63;;;7.70;99.90;;;;;;4927677;29;20139;-70
2023/05/29 00:46:45;;;;;;;16.98;2.33;;;7.70;99.90;;;;;;4925774;29;20122;-70
2023/05/29 00:49:11;;;;;;;13.68;2.70;;;7.70;99.90;;;;;;4930306;29;20074;-70
2023/05/29 00:51:38;;;;;;;17.08;2.17;;;7.70;99.90;;;;;;4937022;29;20050;-70
2023/05/29 00:54:06;;;;;;;12.57;2.10;;;7.70;99.90;;;;;;4911484;29;20075;-70
2023/05/29 00:56:36;;;;;;;14.65;2.25;;;7.60;99.90;;;;;;4920885;29;20465;-70
2023/05/29 00:59:02;;;;;;;15.10;2.78;;;7.60;99.90;;;;;;4930121;29;20055;-70
2023/05/29 01:01:28;;;;;;;14.93;2.10;;;7.60;99.90;;;;;;4930006;29;20040;-70
2023/05/29 01:03:59;;;;;;;15.02;2.40;;;7.60;99.90;;;;;;4930224;29;20054;-70
2023/05/29 01:06:25;;;;;;;12.60;2.58;;;7.60;99.90;;;;;;4907933;29;20119;-70
2023/05/29 01:08:50;;;;;;;20.77;2.53;;;7.50;99.90;;;;;;4914387;29;20054;-70
2023/05/29 01:11:37;;;;;;;17.73;3.07;;;7.50;99.90;;;;;;4909298;29;20674;-70
2023/05/29 01:14:09;;;;;;;14.45;2.65;;;7.50;99.90;;;;;;4923346;29;20130;-70
2023/05/29 01:16:44;;;;;;;15.98;2.08;;;7.50;99.90;;;;;;4925492;29;20471;-70
2023/05/29 01:19:27;;;;;;;12.43;2.13;;;7.50;99.90;;;;;;4922431;29;20535;-70
2023/05/29 01:22:26;;;;;;;15.88;2.42;;;7.50;99.90;;;;;;4930045;29;20127;-70
2023/05/29 01:24:55;;;;;;;15.48;2.80;;;7.50;99.90;;;;;;4933694;29;20067;-70
2023/05/29 01:27:24;;;;;;;13.93;2.17;;;7.50;99.90;;;;;;4907933;29;20044;-70
2023/05/29 01:29:51;;;;;;;14.38;2.58;;;7.40;99.90;;;;;;4927963;29;20031;-70
2023/05/29 01:32:17;;;;;;;13.63;2.60;;;7.40;99.90;;;;;;4913133;29;20112;-70
2023/05/29 01:34:43;;;;;;;18.00;2.50;;;7.40;99.90;;;;;;4928729;29;20099;-70
2023/05/29 01:37:09;;;;;;;13.57;2.87;;;7.40;99.90;;;;;;4931493;29;20048;-70
2023/05/29 01:39:35;;;;;;;17.53;2.23;;;7.40;99.90;;;;;;4926511;29;20049;-70
2023/05/29 01:42:01;;;;;;;12.95;2.15;;;7.40;99.90;;;;;;4927306;29;20728;-70
2023/05/29 01:44:28;;;;;;;17.83;2.60;;;7.30;99.90;;;;;;4911987;29;20071;-70
2023/05/29 01:46:55;;;;;;;16.13;3.00;;;7.30;99.90;;;;;;4932043;29;20043;-70
2023/05/29 01:49:23;;;;;;;14.52;2.80;;;7.30;99.90;;;;;;4921629;29;20067;-70
2023/05/29 01:51:49;;;;;;;20.58;2.70;;;7.30;99.90;;;;;;4929532;29;20047;-70
2023/05/29 01:54:15;;;;;;;12.67;2.20;;;7.30;99.90;;;;;;4932548;29;20508;-70
2023/05/29 01:56:41;;;;;;;16.17;2.63;;;7.30;99.90;;;;;;4913576;29;20090;-70
2023/05/29 01:59:08;;;;;;;16.40;2.67;;;7.30;99.90;;;;;;4916749;29;20059;-70
2023/05/29 02:01:34;;;;;;;10.65;2.47;;;7.30;99.90;;;;;;4931111;29;20043;-70
2023/05/29 02:04:00;;;;;;;12.18;2.05;;;7.30;99.90;;;;;;4917446;29;20459;-70
2023/05/29 02:06:25;;;;;;;19.37;3.20;;;7.30;99.90;;;;;;4916164;29;20044;-70
2023/05/29 02:08:51;;;;;;;18.40;2.53;;;7.30;99.90;;;;;;4922848;29;20036;-70
2023/05/29 02:11:17;;;;;;;12.80;2.20;;;7.30;99.90;;;;;;4933508;29;20040;-70
2023/05/29 02:13:43;;;;;;;17.93;2.30;;;7.20;99.90;;;;;;4936493;29;20054;-70
2023/05/29 02:16:08;;;;;;;16.83;2.97;;;7.20;99.90;;;;;;4933316;29;20039;-70
2023/05/29 02:18:34;;;;;;;14.50;2.33;;;7.20;99.90;;;;;;4922536;29;20062;-70
2023/05/29 02:21:00;;;;;;;16.27;2.30;;;7.20;99.90;;;;;;4932062;29;20036;-70
2023/05/29 02:23:26;;;;;;;17.08;2.53;;;7.20;99.90;;;;;;4932633;29;20043;-70
2023/05/29 02:25:52;;;;;;;16.40;2.50;;;7.30;99.90;;;;;;4926777;29;20032;-70
2023/05/29 02:28:17;;;;;;;19.97;2.47;;;7.30;99.90;;;;;;4932284;29;20149;-70
2023/05/29 02:30:43;;;;;;;14.80;2.63;;;7.20;99.90;;;;;;4922099;29;20044;-71
2023/05/29 02:33:09;;;;;;;17.40;2.70;;;7.30;99.90;;;;;;4932816;29;20047;-71
2023/05/29 02:35:34;;;;;;;20.37;3.00;;;7.30;99.90;;;;;;4931544;29;20048;-71
2023/05/29 02:38:00;;;;;;;15.80;2.50;;;7.30;99.90;;;;;;4930357;29;20195;-71
2023/05/29 02:40:26;;;;;;;16.50;2.33;;;7.30;99.90;;;;;;4927827;29;20155;-70
2023/05/29 02:42:52;;;;;;;16.70;2.57;;;7.30;99.90;;;;;;4925719;29;20036;-70
2023/05/29 02:45:17;;;;;;;16.17;3.43;;;7.40;99.90;;;;;;4924749;29;20474;-70
2023/05/29 02:47:43;;;;;;;15.77;2.87;;;7.40;99.90;;;;;;4929226;29;20300;-71
2023/05/29 02:50:10;;;;;;;13.57;2.50;;;7.40;99.90;;;;;;4910082;29;20055;-71
2023/05/29 02:52:39;;;;;;;18.85;2.80;;;7.40;99.90;;;;;;4927423;29;20126;-70
2023/05/29 02:55:05;;;;;;;13.93;2.25;;;7.50;99.90;;;;;;4924313;29;20050;-70
2023/05/29 02:57:32;;;;;;;16.65;3.10;;;7.50;99.90;;;;;;4932094;29;20408;-70
2023/05/29 02:59:57;;;;;;;19.02;3.05;;;7.60;99.90;;;;;;4931863;29;20265;-71
2023/05/29 03:02:23;;;;;;;17.20;2.73;;;7.60;99.90;;;;;;4927654;29;20561;-71
2023/05/29 03:04:50;;;;;;;15.20;2.80;;;7.60;99.90;;;;;;4924569;29;20048;-71
2023/05/29 03:07:16;;;;;;;11.57;2.45;;;7.60;99.90;;;;;;4927419;29;20052;-70
2023/05/29 03:09:42;;;;;;;15.83;2.80;;;7.60;99.90;;;;;;4931770;29;20155;-71
2023/05/29 03:12:08;;;;;;;19.63;3.67;;;7.60;99.90;;;;;;4925426;29;20044;-71
2023/05/29 03:14:35;;;;;;;19.93;3.20;;;7.60;99.90;;;;;;4921661;29;20390;-70
2023/05/29 03:17:05;;;;;;;12.60;2.10;;;7.60;99.90;;;;;;4928037;29;20308;-71
2023/05/29 03:19:31;;;;;;;13.30;2.10;;;7.60;99.90;;;;;;4931717;29;20496;-71
2023/05/29 03:21:57;;;;;;;15.65;2.97;;;7.70;99.90;;;;;;4911502;29;20052;-70
2023/05/29 03:24:25;;;;;;;12.13;2.23;;;7.70;99.90;;;;;;4923376;29;20047;-70
2023/05/29 03:26:51;;;;;;;16.67;3.08;;;7.80;99.90;;;;;;4927241;29;20056;-70
2023/05/29 03:29:18;;;;;;;15.50;2.60;;;7.90;99.90;;;;;;4931529;29;20040;-70
2023/05/29 03:31:44;;;;;;;15.15;2.42;;;7.90;99.90;;;;;;4930649;29;20476;-70
2023/05/29 03:34:09;;;;;;;11.00;2.10;;;8.00;99.90;;;;;;4907909;29;20049;-71
2023/05/29 03:36:38;;;;;;;16.63;2.83;;;8.10;99.90;;;;;;4920827;29;20135;-70
2023/05/29 03:39:04;;;;;;;15.38;2.38;;;8.20;99.90;;;;;;4926109;29;20059;-70
2023/05/29 03:41:29;;;;;;;15.77;2.90;;;8.30;99.90;;;;;;4918289;29;20058;-71
2023/05/29 03:43:55;;;;;;;13.63;2.40;;;8.40;99.70;;;;;;4937785;29;20050;-71
2023/05/29 03:46:21;;;;;;;13.20;2.30;;;8.50;99.50;;;;;;4927672;29;20044;-71
2023/05/29 03:48:46;;;;;;;11.93;2.50;;;8.50;99.20;;;;;;4931632;29;20058;-71
2023/05/29 03:51:12;;;;;;;17.50;2.17;;;8.60;99.00;;;;;;4929824;29;20138;-71
2023/05/29 03:53:38;;;;;;;18.23;2.50;;;8.70;98.80;;;;;;4931467;29;20448;-71
2023/05/29 03:56:04;;;;;;;11.17;2.17;;;8.80;98.40;;;;;;4922094;29;20550;-71
2023/05/29 03:58:30;;;;;;;17.77;2.58;;;8.80;98.30;;;;;;4928606;29;20092;-71
2023/05/29 04:00:55;;;;;;;18.20;2.77;;;8.90;98.00;;;;;;4928231;29;20067;-71
2023/05/29 04:03:21;;;;;;;14.53;2.50;;;9.00;97.80;;;;;;4930163;29;20092;-71
2023/05/29 04:05:47;;;;;;;16.67;2.47;;;9.00;97.60;;;;;;4928906;29;20040;-71
2023/05/29 04:08:13;;;;;;;13.00;2.70;;;9.10;97.70;;;;;;4926303;29;20071;-71
2023/05/29 04:10:39;;;;;;;16.70;3.37;;;9.10;97.60;;;;;;4922789;29;20031;-71
2023/05/29 04:13:06;;;;;;;17.15;2.65;;;9.10;97.70;;;;;;4920734;29;20054;-71
2023/05/29 04:15:33;;;;;;;15.18;2.70;;;9.20;97.60;;;;;;4911209;29;20074;-71
2023/05/29 04:17:59;;;;;;;12.68;2.33;;;9.30;97.70;;;;;;4930027;29;20062;-71
2023/05/29 04:20:25;;;;;;;14.98;3.05;;;9.30;97.80;;;;;;4929892;29;20450;-71
2023/05/29 04:22:51;;;;;;;15.17;3.30;;;9.40;97.50;;;;;;4904072;29;20059;-71
2023/05/29 04:25:17;;;;;;;8.40;2.15;;;9.40;96.90;;;;;;4910154;29;20059;-71
2023/05/29 04:27:48;;;;;;;10.93;1.92;;;9.50;97.00;;;;;;4908511;29;20126;-71
2023/05/29 04:30:14;;;;;;;17.00;2.83;;;9.50;96.80;;;;;;4916056;29;20099;-71
2023/05/29 04:32:40;;;;;;;12.95;2.95;;;9.60;96.30;;;;;;4930153;29;20122;-71
2023/05/29 04:35:06;;;;;;;12.33;1.87;;;9.70;95.90;;;;;;4924599;29;20123;-71
2023/05/29 04:37:37;;;;;;;15.30;2.03;;;9.70;95.60;;;;;;4931376;29;20040;-71
2023/05/29 04:40:08;;;;;;;13.48;2.10;;;9.80;94.60;;;;;;4927745;29;20446;-71
2023/05/29 04:42:35;;;;;;;11.88;2.20;;;9.90;94.20;;;;;;4931055;29;20095;-71
2023/05/29 04:45:01;;;;;;;15.30;2.17;;;10.00;94.00;;;;;;4925282;29;20040;-71
2023/05/29 04:47:27;;;;;;;14.30;2.37;;;10.20;93.40;;;;;;4928069;29;20126;-71
2023/05/29 04:49:54;;;;;;;14.90;2.60;;;10.40;92.90;;;;;;4915574;29;20122;-71
2023/05/29 04:52:21;;;;;;;12.75;2.20;;;10.70;91.90;;;;;;4926456;29;20488;-71
2023/05/29 04:54:47;;;;;;;11.77;1.98;;;11.00;91.00;;;;;;4929945;29;20047;-71
2023/05/29 04:57:12;;;;;;;11.23;2.27;;;11.30;88.90;;;;;;4908487;29;20392;-71
2023/05/29 04:59:38;;;;;;;10.20;2.20;;;11.60;87.80;;;;;;4928241;29;20310;-71
2023/05/29 05:02:05;;;;;;;13.47;1.90;;;11.70;86.30;;;;;;4927747;29;20135;-71
2023/05/29 05:04:32;;;;;;;13.30;2.65;;;11.60;85.50;;;;;;4933702;29;20098;-71
2023/05/29 05:06:57;;;;;;;10.90;1.70;;;11.50;85.10;;;;;;4930974;29;20051;-71
2023/05/29 05:09:23;;;;;;;13.23;2.03;;;11.40;85.30;;;;;;4931979;29;20036;-70
2023/05/29 05:11:49;;;;;;;11.63;1.98;;;11.30;84.20;;;;;;4931415;29;20051;-70
2023/05/29 05:14:15;;;;;;;15.97;2.07;;;11.30;84.60;;;;;;4928068;29;20036;-72
2023/05/29 05:16:40;;;;;;;18.03;2.50;;;11.30;85.20;;;;;;4906471;29;20592;-71
2023/05/29 05:19:06;;;;;;;13.27;2.73;;;11.50;84.50;;;;;;4932877;29;20044;-71
2023/05/29 05:21:32;;;;;;;10.40;2.03;;;11.50;84.00;;;;;;4932039;29;20035;-71
2023/05/29 05:23:59;;;;;;;11.07;3.00;;;11.50;83.60;;;;;;4930492;29;20046;-71
2023/05/29 05:26:26;;;;;;;12.80;2.17;;;11.50;83.80;;;;;;4928056;29;20051;-72
2023/05/29 05:28:52;;;;;;;14.82;2.20;;;11.50;83.90;;;;;;4930055;29;20051;-71
2023/05/29 05:31:18;;;;;;;10.10;1.80;;;11.60;83.90;;;;;;4925700;29;20099;-71
2023/05/29 05:33:43;;;;;;;12.60;2.50;;;11.60;84.00;;;;;;4929372;29;20128;-71
2023/05/29 05:36:10;;;;;;;15.50;1.93;;;11.70;83.20;;;;;;4922334;29;20055;-72
2023/05/29 05:38:35;;;;;;;9.65;1.60;;;11.80;82.90;;;;;;4939543;29;20520;-71
2023/05/29 05:41:01;;;;;;;13.73;2.20;;;12.00;82.60;;;;;;4929780;29;20114;-71
2023/05/29 05:43:27;;;;;;;12.17;2.10;;;12.30;81.50;;;;;;4930641;29;20057;-71
2023/05/29 05:45:52;;;;;;;11.37;1.73;;;12.40;80.50;;;;;;4929042;29;20070;-71
2023/05/29 05:48:18;;;;;;;10.60;2.07;;;12.60;79.60;;;;;;4905003;29;20054;-71
2023/05/29 05:50:44;;;;;;;12.87;1.77;;;12.60;78.90;;;;;;4920636;29;20044;-71
2023/05/29 05:53:09;;;;;;;13.27;1.97;;;12.60;79.30;;;;;;4927450;29;20043;-71
2023/05/29 05:55:35;;;;;;;11.30;1.83;;;12.60;79.00;;;;;;4927375;29;20626;-72
2023/05/29 05:58:01;;;;;;;13.13;2.47;;;12.80;78.60;;;;;;4922370;29;20099;-71
2023/05/29 06:00:27;;;;;;;14.60;1.87;;;13.00;77.80;;;;;;4915402;29;20092;-70
2023/05/29 06:02:53;;;;;;;13.18;2.03;;;13.10;76.80;;;;;;4928410;29;20040;-71
2023/05/29 06:05:19;;;;;;;10.03;2.10;;;13.10;76.00;;;;;;4927447;29;20051;-72
2023/05/29 06:07:45;;;;;;;13.80;2.47;;;13.00;76.60;;;;;;4930171;29;20566;-72
2023/05/29 06:10:11;;;;;;;14.90;2.43;;;13.00;76.80;;;;;;4928594;29;20040;-71
2023/05/29 06:12:37;;;;;;;12.67;2.60;;;13.00;75.80;;;;;;4933435;29;20043;-71
2023/05/29 06:15:04;;;;;;;16.37;2.40;;;13.10;74.00;;;;;;4930794;29;20142;-72
2023/05/29 06:17:29;;;;;;;11.23;2.20;;;13.30;75.00;;;;;;4931542;29;20300;-71
2023/05/29 06:19:55;;;;;;;13.27;2.60;;;13.60;74.80;;;;;;4913700;29;20361;-71
2023/05/29 06:22:21;;;;;;;10.10;2.30;;;13.80;73.60;;;;;;4932033;29;20047;-71
2023/05/29 06:24:46;;;;;;;12.40;2.43;;;13.80;71.00;;;;;;4943201;29;20511;-71
2023/05/29 06:27:12;;;;;;;18.17;2.77;;;13.70;71.30;;;;;;4915238;29;20071;-71
2023/05/29 06:29:38;;;;;;;14.27;2.73;;;13.60;69.90;;;;;;4906084;29;20467;-71
2023/05/29 06:32:04;;;;;;;14.80;2.50;;;13.60;71.00;;;;;;4923947;29;20060;-71
2023/05/29 06:34:30;;;;;;;12.83;2.53;;;13.70;71.00;;;;;;4932253;29;20048;-71
2023/05/29 06:36:55;;;;;;;17.80;2.57;;;13.80;70.30;;;;;;4910171;29;20306;-71
2023/05/29 06:39:21;;;;;;;20.20;2.60;;;13.70;69.50;;;;;;4927308;29;20083;-71
2023/05/29 06:41:47;;;;;;;10.40;2.70;;;13.70;70.80;;;;;;4929413;29;20051;-72
2023/05/29 06:44:12;;;;;;;19.33;3.37;;;13.60;71.90;;;;;;4929452;29;20055;-71
2023/05/29 06:46:38;;;;;;;11.37;2.47;;;13.60;71.50;;;;;;4931262;29;20039;-71
2023/05/29 06:49:05;;;;;;;16.20;3.23;;;13.50;71.30;;;;;;4932327;29;20066;-72
2023/05/29 06:51:32;;;;;;;15.10;2.90;;;13.30;71.10;;;;;;4930831;29;20291;-71
2023/05/29 06:53:58;;;;;;;14.63;2.80;;;13.20;71.10;;;;;;4927050;29;20058;-71
2023/05/29 06:56:23;;;;;;;13.30;2.83;;;13.20;71.40;;;;;;4915610;29;20651;-72
2023/05/29 06:58:49;;;;;;;14.37;2.60;;;13.20;70.90;;;;;;4929243;29;20054;-71
2023/05/29 07:01:16;;;;;;;15.70;2.97;;;13.20;71.00;;;;;;4924102;29;20590;-72
2023/05/29 07:03:42;;;;;;;16.73;3.63;;;13.40;70.50;;;;;;4922381;29;20165;-72
2023/05/29 07:06:08;;;;;;;18.43;3.40;;;13.50;69.90;;;;;;4907351;29;20745;-72
2023/05/29 07:08:34;;;;;;;14.67;3.33;;;13.60;69.80;;;;;;4940039;29;20288;-72
2023/05/29 07:11:01;;;;;;;14.37;2.93;;;13.60;70.10;;;;;;4932922;29;20043;-71
2023/05/29 07:13:27;;;;;;;12.87;2.27;;;13.60;69.50;;;;;;4932319;29;20047;-71
2023/05/29 07:15:52;;;;;;;10.93;2.40;;;13.60;69.60;;;;;;4922565;29;20809;-71
2023/05/29 07:18:18;;;;;;;14.77;3.40;;;13.60;69.70;;;;;;4909982;29;20295;-71
2023/05/29 07:20:44;;;;;;;14.43;3.07;;;13.70;69.90;;;;;;4914829;29;20122;-73
2023/05/29 07:23:10;;;;;;;20.70;4.07;;;13.70;69.50;;;;;;4933003;29;20054;-71
2023/05/29 07:25:35;;;;;;;17.00;3.50;;;13.70;68.60;;;;;;4929034;29;20308;-72
2023/05/29 07:28:01;;;;;;;19.73;3.37;;;13.70;69.20;;;;;;4909431;29;20035;-72
2023/05/29 07:30:27;;;;;;;14.60;2.50;;;13.80;69.30;;;;;;4910718;29;20131;-72
2023/05/29 07:32:52;;;;;;;19.97;4.43;;;13.80;69.00;;;;;;4925532;29;20784;-72
2023/05/29 07:35:18;;;;;;;13.13;3.57;;;13.90;70.10;;;;;;4925795;29;20047;-72
2023/05/29 07:37:44;;;;;;;13.00;2.97;;;14.00;69.30;;;;;;4934060;29;20055;-71
2023/05/29 07:40:10;;;;;;;14.33;2.97;;;14.00;69.30;;;;;;4931846;29;20064;-71
2023/05/29 07:42:36;;;;;;;17.07;3.00;;;14.00;68.70;;;;;;4930147;29;20388;-71
2023/05/29 07:45:01;;;;;;;16.47;3.33;;;13.90;68.20;;;;;;4931158;29;20047;-72
2023/05/29 07:47:27;;;;;;;18.00;3.60;;;13.90;68.80;;;;;;4927129;29;20043;-72
2023/05/29 07:49:53;;;;;;;18.63;3.67;;;13.90;69.70;;;;;;4912029;29;20386;-72
2023/05/29 07:52:19;;;;;;;21.87;3.60;;;14.00;68.90;;;;;;4918892;29;20126;-72
2023/05/29 07:54:44;;;;;;;13.47;3.00;;;14.10;69.10;;;;;;4914159;29;20039;-72
2023/05/29 07:57:10;;;;;;;15.77;3.10;;;14.20;68.60;;;;;;4927589;29;20110;-71
2023/05/29 07:59:37;;;;;;;13.23;3.03;;;14.30;68.80;;;;;;4924329;29;20520;-71
2023/05/29 08:02:04;;;;;;;12.57;2.80;;;14.40;69.30;;;;;;4924997;29;20074;-72
2023/05/29 08:04:32;;;;;;;15.07;3.37;;;14.60;68.10;;;;;;4914709;29;20290;-72
2023/05/29 08:07:03;;;;;;;15.57;3.27;;;14.70;66.70;;;;;;4932241;29;20304;-72
2023/05/29 08:09:29;;;;;;;13.13;3.13;;;14.70;65.30;;;;;;4913650;29;20042;-73
2023/05/29 08:11:55;;;;;;;14.60;3.13;;;14.60;65.40;;;;;;4907701;29;20284;-71
2023/05/29 08:14:21;;;;;;;15.83;3.40;;;14.50;65.60;;;;;;4903735;29;20484;-71
2023/05/29 08:16:46;;;;;;;14.80;3.20;;;14.50;66.60;;;;;;4930237;29;20058;-71
2023/05/29 08:19:12;;;;;;;17.93;4.13;;;14.50;65.90;;;;;;4916386;29;20072;-71
2023/05/29 08:21:38;;;;;;;18.50;3.33;;;14.50;66.90;;;;;;4928896;29;20455;-71
2023/05/29 08:24:06;;;;;;;13.17;2.90;;;14.70;66.50;;;;;;4932608;29;20508;-72
2023/05/29 08:26:32;;;;;;;23.10;3.70;;;14.70;65.90;;;;;;4929357;29;20055;-71
2023/05/29 08:28:58;;;;;;;18.83;3.83;;;14.70;66.40;;;;;;4929820;29;20298;-71
2023/05/29 08:31:27;;;;;;;16.73;2.97;;;14.70;67.40;;;;;;4927757;29;20283;-72
2023/05/29 08:33:53;;;;;;;14.53;2.60;;;14.80;68.00;;;;;;4934301;29;20040;-72
2023/05/29 08:36:22;;;;;;;17.33;3.63;;;14.80;65.10;;;;;;4920630;29;20426;-71
2023/05/29 08:38:51;;;;;;;12.40;2.77;;;14.50;64.70;;;;;;4923496;29;20304;-71
2023/05/29 08:41:55;;;;;;;18.00;3.87;;;14.30;65.40;;;;;;4918422;29;20288;-71
2023/05/29 08:44:22;;;;;;;19.63;3.50;;;14.30;65.70;;;;;;4920240;29;20331;-71
2023/05/29 08:47:03;;;;;;;17.13;3.53;;;14.20;65.90;;;;;;4907999;29;20389;-71
2023/05/29 08:49:34;;;;;;;14.27;2.90;;;14.30;65.80;;;;;;4921487;29;20294;-71
2023/05/29 08:52:15;;;;;;;15.67;3.07;;;14.30;65.10;;;;;;4917303;29;20334;-72
2023/05/29 08:54:41;;;;;;;14.10;2.97;;;14.50;66.60;;;;;;4921185;29;20283;-71
2023/05/29 08:57:08;;;;;;;18.10;3.10;;;14.80;66.50;;;;;;4906504;29;20283;-70
2023/05/29 08:59:34;;;;;;;11.47;2.53;;;15.00;64.90;;;;;;4922527;29;20334;-70
2023/05/29 09:02:03;;;;;;;18.37;3.47;;;15.10;65.10;;;;;;4920164;29;20297;-70
2023/05/29 09:04:31;;;;;;;15.63;3.37;;;15.20;65.40;;;;;;4919980;29;20307;-71
2023/05/29 09:07:00;;;;;;;17.40;3.27;;;15.30;65.80;;;;;;4927415;29;20300;-72
2023/05/29 09:09:27;;;;;;;16.30;3.30;;;15.40;65.00;;;;;;4907930;29;20322;-72
2023/05/29 09:11:53;;;;;;;17.03;3.63;;;15.30;64.50;;;;;;4923542;29;20320;-72
2023/05/29 09:14:40;;;;;;;17.27;3.87;;;15.30;63.90;;;;;;4924032;29;20321;-72
2023/05/29 09:17:08;;;;;;;17.63;3.40;;;15.30;63.80;;;;;;4924964;29;20362;-72
2023/05/29 09:19:34;;;;;;;18.50;3.30;;;15.30;64.50;;;;;;4926763;29;20763;-72
2023/05/29 09:22:07;;;;;;;20.47;3.47;;;15.30;63.40;;;;;;4917710;29;20298;-71
2023/05/29 09:24:34;;;;;;;16.53;2.93;;;15.30;63.40;;;;;;4910590;29;20296;-72
2023/05/29 09:27:01;;;;;;;14.33;3.07;;;15.30;64.00;;;;;;4927597;29;20390;-71
2023/05/29 09:29:47;;;;;;;13.30;3.37;;;15.40;63.60;;;;;;4912579;29;20334;-72
2023/05/29 09:32:19;;;;;;;16.73;3.10;;;15.40;64.30;;;;;;4925991;29;20298;-71
2023/05/29 09:34:45;;;;;;;14.57;3.53;;;15.50;64.30;;;;;;4921558;29;20283;-71
2023/05/29 09:37:12;;;;;;;18.17;3.50;;;15.60;64.00;;;;;;4921860;29;20284;-71
2023/05/29 09:39:51;;;;;;;13.77;3.17;;;15.70;63.00;;;;;;4928928;29;20276;-71
2023/05/29 09:42:17;;;;;;;18.43;3.47;;;15.80;62.00;;;;;;4923641;29;20374;-71
2023/05/29 09:44:46;;;;;;;17.37;3.17;;;15.80;62.60;;;;;;4924547;29;20807;-71
2023/05/29 09:47:17;;;;;;;15.10;3.40;;;15.90;61.20;;;;;;4908655;29;20314;-71
2023/05/29 09:49:43;;;;;;;13.47;2.93;;;16.00;61.50;;;;;;4930139;29;20288;-71
2023/05/29 09:52:15;;;;;;;18.90;3.10;;;16.10;61.20;;;;;;4927899;29;20931;-71
2023/05/29 09:54:48;;;;;;;19.97;3.30;;;16.20;62.00;;;;;;4929528;29;20287;-71
2023/05/29 09:57:16;;;;;;;17.87;3.40;;;16.20;60.50;;;;;;4924368;29;20283;-71
2023/05/29 09:59:44;;;;;;;14.67;3.33;;;16.10;58.80;;;;;;4933398;29;20306;-71
2023/05/29 10:02:13;;;;;;;14.23;2.80;;;16.00;59.60;;;;;;4916134;29;20294;-71
2023/05/29 10:04:40;;;;;;;19.43;3.03;;;15.90;58.80;;;;;;4929436;29;20291;-71
2023/05/29 10:07:20;;;;;;;14.30;2.90;;;15.90;59.20;;;;;;4943983;29;20315;-71
2023/05/29 10:09:50;;;;;;;16.93;3.47;;;15.80;58.70;;;;;;4920951;29;20287;-72
2023/05/29 10:12:20;;;;;;;16.80;3.23;;;15.70;59.20;;;;;;4914910;29;20791;-71
2023/05/29 10:14:49;;;;;;;16.67;3.63;;;15.70;59.70;;;;;;4927449;29;20354;-71
2023/05/29 10:17:18;;;;;;;14.80;3.13;;;15.80;59.90;;;;;;4923346;29;20284;-71
2023/05/29 10:19:46;;;;;;;17.00;3.33;;;15.90;60.20;;;;;;4925714;29;20390;-71
2023/05/29 10:22:14;;;;;;;15.13;3.10;;;15.90;59.60;;;;;;4914376;29;20656;-71
2023/05/29 10:24:40;;;;;;;16.77;3.00;;;15.90;58.30;;;;;;4925869;29;20295;-71
2023/05/29 10:27:06;;;;;;;12.77;3.00;;;15.80;59.50;;;;;;4928275;29;20323;-71
2023/05/29 10:29:37;;;;;;;18.17;3.30;;;15.70;59.60;;;;;;4929797;29;20031;-71
2023/05/29 10:32:32;;;;;;;15.23;3.60;;;15.70;59.80;;;;;;4931453;29;20043;-71
2023/05/29 10:34:58;;;;;;;15.20;3.10;;;15.90;59.90;;;;;;4911232;29;20291;-72
2023/05/29 10:37:46;;;;;;;14.87;3.20;;;16.00;59.40;;;;;;4926519;29;20043;-71
2023/05/29 10:40:12;;;;;;;13.97;3.27;;;16.00;59.00;;;;;;4910202;29;20404;-71
2023/05/29 10:42:52;;;;;;;13.03;2.90;;;16.10;59.30;;;;;;4926010;29;20340;-71
2023/05/29 10:45:35;;;;;;;15.93;3.70;;;16.20;59.40;;;;;;4928788;29;20863;-71
2023/05/29 10:48:10;;;;;;;18.50;3.40;;;16.20;59.60;;;;;;4931296;29;20300;-71
2023/05/29 10:50:38;;;;;;;13.98;3.33;;;16.30;59.30;;;;;;4911990;29;20287;-71
2023/05/29 10:53:24;;;;;;;15.70;3.07;;;16.40;59.50;;;;;;4914401;29;20428;-71
2023/05/29 10:55:51;;;;;;;14.87;2.50;;;16.40;58.20;;;;;;4923627;29;20287;-71
2023/05/29 10:58:22;;;;;;;18.37;3.30;;;16.20;58.90;;;;;;4926264;29;20287;-71
2023/05/29 11:00:49;;;;;;;17.03;3.53;;;16.30;58.80;;;;;;4908385;29;20295;-72
2023/05/29 11:03:23;;;;;;;14.40;2.53;;;16.30;58.00;;;;;;4930604;29;20309;-71
2023/05/29 11:06:18;;;;;;;13.45;2.80;;;16.40;58.60;;;;;;4932725;29;20373;-71
2023/05/29 11:09:07;;;;;;;13.93;2.67;;;16.50;58.40;;;;;;4934831;29;20039;-71
2023/05/29 11:11:36;;;;;;;12.50;2.43;;;16.40;58.10;;;;;;4931214;29;20047;-72
2023/05/29 11:14:04;;;;;;;15.20;2.73;;;16.50;58.60;;;;;;4928742;29;20283;-71
2023/05/29 11:16:30;;;;;;;17.10;3.10;;;16.50;59.30;;;;;;4911130;29;20318;-71
2023/05/29 11:18:57;;;;;;;14.77;2.80;;;16.60;57.50;;;;;;4910710;29;20315;-70
2023/05/29 11:21:24;;;;;;;8.77;2.77;;;16.50;57.60;;;;;;4913370;29;20144;-70
2023/05/29 11:23:54;;;;;;;17.90;3.23;;;16.50;57.70;;;;;;4927970;29;20387;-70
2023/05/29 11:26:22;;;;;;;10.70;2.63;;;16.40;57.30;;;;;;4926421;29;20327;-70
2023/05/29 11:28:49;;;;;;;14.63;2.77;;;16.40;57.10;;;;;;4929942;29;20290;-70
2023/05/29 11:31:16;;;;;;;16.83;3.20;;;16.50;58.10;;;;;;4910915;29;21084;-71
2023/05/29 11:33:47;;;;;;;16.43;3.23;;;16.50;57.80;;;;;;4924444;29;20283;-71
2023/05/29 11:36:14;;;;;;;14.83;3.10;;;16.70;58.40;;;;;;4925753;29;20326;-70
2023/05/29 11:38:40;;;;;;;16.03;3.40;;;16.70;56.70;;;;;;4921638;29;20839;-70
2023/05/29 11:41:06;;;;;;;12.70;3.17;;;16.70;57.70;;;;;;4899345;29;20295;-71
2023/05/29 11:43:32;;;;;;;13.23;3.00;;;16.70;58.30;;;;;;4915713;29;20103;-70
2023/05/29 11:45:59;;;;;;;14.30;3.30;;;16.70;58.60;;;;;;4921602;29;20086;-71
2023/05/29 11:48:24;;;;;;;12.50;2.70;;;16.80;58.70;;;;;;4927538;29;20303;-71
2023/05/29 11:50:50;;;;;;;14.57;3.07;;;16.90;56.80;;;;;;4909575;29;20362;-71
2023/05/29 11:53:16;;;;;;;14.10;3.00;;;16.90;56.80;;;;;;4925622;29;20840;-71
2023/05/29 11:55:42;;;;;;;11.33;2.87;;;16.90;57.90;;;;;;4927476;29;20111;-71
2023/05/29 11:58:07;;;;;;;19.53;3.37;;;16.90;57.80;;;;;;4922369;29;20400;-71
2023/05/29 12:00:36;;;;;;;11.53;2.50;;;17.00;57.80;;;;;;4912301;29;20035;-71
2023/05/29 12:03:03;;;;;;;14.53;2.83;;;17.10;57.60;;;;;;4927417;29;20075;-71
2023/05/29 12:05:31;;;;;;;12.20;2.47;;;17.30;58.00;;;;;;4908419;29;20308;-71
2023/05/29 12:07:57;;;;;;;14.70;3.07;;;17.60;57.30;;;;;;4925407;29;20291;-70
2023/05/29 12:10:26;;;;;;;15.20;2.90;;;17.80;56.30;;;;;;4926817;29;20355;-73
2023/05/29 12:13:00;;;;;;;15.57;4.43;;;17.70;55.20;;;;;;4928930;29;20302;-73
2023/05/29 12:15:26;;;;;;;16.23;2.83;;;17.60;54.80;;;;;;4926659;29;20299;-72
2023/05/29 12:17:53;;;;;;;15.23;2.97;;;17.40;53.80;;;;;;4926950;29;20046;-72
2023/05/29 12:20:23;;;;;;;15.10;3.60;;;17.30;54.20;;;;;;4929484;29;20078;-72
2023/05/29 12:22:49;;;;;;;12.43;3.03;;;17.30;55.40;;;;;;4925370;29;20292;-73
2023/05/29 12:25:20;;;;;;;18.83;2.83;;;17.50;55.20;;;;;;4929136;29;20311;-72
2023/05/29 12:27:47;;;;;;;10.50;2.80;;;17.50;55.40;;;;;;4937825;29;20296;-72
2023/05/29 12:30:22;;;;;;;25.37;4.90;;;17.50;55.40;;;;;;4928775;29;20326;-72
2023/05/29 12:32:51;;;;;;;11.27;2.33;;;17.60;54.50;;;;;;4911662;29;20821;-73
2023/05/29 12:35:25;;;;;;;11.73;2.47;;;17.50;53.50;;;;;;4931058;29;20051;-71
2023/05/29 12:38:04;;;;;;;12.02;2.55;;;17.40;54.50;;;;;;4926631;29;20288;-71
2023/05/29 12:40:31;;;;;;;11.60;2.43;;;17.40;54.00;;;;;;4920723;29;20040;-72
2023/05/29 12:43:02;;;;;;;14.73;2.30;;;17.40;53.40;;;;;;4910982;29;20365;-72